Time;durP1;ratioP1;P1;durP2;ratioP2;P2;SDS_P1;SDS_P2;PMS_P1;PMS_P2;Temp;Humidity;BMP_temperature;BMP_pressure;BME280_temperature;BME280_humidity;BME280_pressure;Samples;Min_cycle;Max_cycle;Signal;HPM_P1;HPM_P2
2021/12/07 00:01:11;;;;;;;32.70;15.63;;;;;;;-2.05;100.00;100501.16;5019945;28;20200;-82
2021/12/07 00:03:39;;;;;;;28.10;14.43;;;;;;;-2.11;100.00;100494.22;5016426;28;20224;-83
2021/12/07 00:06:07;;;;;;;30.23;15.27;;;;;;;-2.12;100.00;100494.19;5016888;28;20201;-82
2021/12/07 00:08:33;;;;;;;33.23;16.43;;;;;;;-2.13;100.00;100498.44;5018724;28;20300;-82
2021/12/07 00:11:00;;;;;;;35.07;16.47;;;;;;;-2.12;100.00;100499.28;5020986;28;20686;-81
2021/12/07 00:13:29;;;;;;;32.70;15.23;;;;;;;-2.12;100.00;100497.59;5017749;28;20548;-82
2021/12/07 00:15:56;;;;;;;29.83;15.30;;;;;;;-2.07;100.00;100502.81;5022070;28;20750;-82
2021/12/07 00:18:23;;;;;;;32.47;15.40;;;;;;;-2.04;100.00;100504.56;5015455;28;20239;-85
2021/12/07 00:20:51;;;;;;;36.17;16.63;;;;;;;-2.02;100.00;100502.91;5022092;28;20373;-82
2021/12/07 00:23:17;;;;;;;35.40;15.87;;;;;;;-2.01;100.00;100502.09;5016432;28;20560;-83
2021/12/07 00:25:44;;;;;;;29.53;15.33;;;;;;;-1.94;100.00;100498.84;5020961;28;20791;-82
2021/12/07 00:28:10;;;;;;;38.17;17.37;;;;;;;-1.93;100.00;100505.69;5016680;28;20213;-82
2021/12/07 00:30:38;;;;;;;38.07;16.83;;;;;;;-1.95;100.00;100509.91;5017547;28;20211;-82
2021/12/07 00:33:14;;;;;;;34.03;15.93;;;;;;;-1.91;100.00;100509.16;5019471;28;20310;-82
2021/12/07 00:35:42;;;;;;;34.90;17.30;;;;;;;-1.93;100.00;100503.16;5019004;28;20678;-83
2021/12/07 00:38:13;;;;;;;35.17;17.50;;;;;;;-1.93;100.00;100505.69;5012503;28;20325;-82
2021/12/07 00:40:40;;;;;;;34.33;16.13;;;;;;;-1.95;100.00;100505.66;5017348;28;20200;-83
2021/12/07 00:43:08;;;;;;;32.80;16.17;;;;;;;-1.91;100.00;100502.34;5018859;28;20230;-81
2021/12/07 00:45:36;;;;;;;31.80;15.30;;;;;;;-1.92;100.00;100502.31;5012436;28;20263;-82
2021/12/07 00:48:05;;;;;;;40.40;18.27;;;;;;;-1.93;100.00;100491.22;5018169;28;20214;-82
2021/12/07 00:50:33;;;;;;;35.70;17.03;;;;;;;-1.91;100.00;100481.91;5018571;28;20304;-83
2021/12/07 00:53:02;;;;;;;36.50;17.67;;;;;;;-1.92;100.00;100481.84;5021056;28;20687;-83
2021/12/07 00:55:34;;;;;;;36.53;17.27;;;;;;;-1.92;100.00;100476.75;5016762;28;20942;-82
2021/12/07 00:58:07;;;;;;;37.40;16.83;;;;;;;-1.95;100.00;100472.44;5006044;28;20623;-82
2021/12/07 01:00:33;;;;;;;36.50;16.97;;;;;;;-1.95;100.00;100475.00;5016454;28;20215;-82
2021/12/07 01:02:59;;;;;;;35.80;17.03;;;;;;;-1.94;100.00;100468.19;5021768;28;20228;-83
2021/12/07 01:05:31;;;;;;;38.47;17.30;;;;;;;-1.97;100.00;100474.09;5008465;28;20216;-82
2021/12/07 01:08:15;;;;;;;34.00;17.07;;;;;;;-1.99;100.00;100470.63;5018512;28;20196;-82
2021/12/07 01:24:41;;;;;;;35.57;15.93;;;;;;;-2.32;100.00;100445.22;5006026;28;20239;-82
2021/12/07 01:27:10;;;;;;;34.40;17.00;;;;;;;-2.34;100.00;100441.72;5011652;28;20222;-82
2021/12/07 01:29:38;;;;;;;30.13;15.33;;;;;;;-2.38;100.00;100433.13;5016397;28;20208;-82
2021/12/07 01:32:15;;;;;;;29.67;14.93;;;;;;;-2.37;100.00;100432.31;5021433;28;20204;-82
2021/12/07 01:35:20;;;;;;;31.87;15.63;;;;;;;-2.33;100.00;100417.94;5028105;28;20488;-82
2021/12/07 01:38:20;;;;;;;36.83;16.53;;;;;;;-2.35;100.00;100424.69;5011189;28;20217;-82
2021/12/07 01:40:59;;;;;;;37.60;16.53;;;;;;;-2.36;100.00;100417.84;5011527;28;20278;-83
2021/12/07 01:59:55;;;;;;;40.77;17.30;;;;;;;-2.41;100.00;100406.66;5020157;28;21355;-82
2021/12/07 02:02:24;;;;;;;37.13;17.40;;;;;;;-2.42;100.00;100413.47;5014114;28;21001;-83
2021/12/07 02:04:50;;;;;;;34.93;17.50;;;;;;;-2.41;100.00;100405.00;5020121;28;20226;-83
2021/12/07 02:07:23;;;;;;;36.90;16.63;;;;;;;-2.41;100.00;100416.88;5013709;28;20485;-82
2021/12/07 02:09:55;;;;;;;39.97;17.07;;;;;;;-2.41;100.00;100409.22;5016140;28;20218;-83
2021/12/07 02:12:22;;;;;;;38.13;19.03;;;;;;;-2.42;100.00;100405.81;5006310;28;20458;-83
2021/12/07 02:14:49;;;;;;;37.00;17.57;;;;;;;-2.40;100.00;100403.28;5015747;28;21015;-82
2021/12/07 02:17:23;;;;;;;39.27;18.13;;;;;;;-2.41;100.00;100391.34;5014934;28;20486;-84
2021/12/07 02:19:51;;;;;;;36.57;17.60;;;;;;;-2.44;100.00;100384.50;5016665;28;21026;-83
2021/12/07 02:22:19;;;;;;;36.67;17.20;;;;;;;-2.47;100.00;100387.81;5016322;28;20693;-82
2021/12/07 02:24:49;;;;;;;37.70;17.83;;;;;;;-2.46;100.00;100381.03;5014235;28;20235;-83
2021/12/07 02:27:16;;;;;;;38.00;18.67;;;;;;;-2.50;100.00;100382.66;5012751;28;20206;-83
2021/12/07 02:29:43;;;;;;;36.33;18.03;;;;;;;-2.48;100.00;100386.09;5012050;28;20625;-81
2021/12/07 02:32:09;;;;;;;38.93;18.37;;;;;;;-2.50;100.00;100386.88;5020118;28;20552;-83
2021/12/07 02:34:42;;;;;;;36.07;18.40;;;;;;;-2.49;100.00;100389.47;5014158;28;20234;-82
2021/12/07 02:37:10;;;;;;;37.30;17.63;;;;;;;-2.49;100.00;100391.19;5014360;28;20466;-82
2021/12/07 02:39:40;;;;;;;34.87;18.03;;;;;;;-2.48;100.00;100385.22;5010201;28;20742;-81
2021/12/07 02:42:08;;;;;;;36.53;18.13;;;;;;;-2.48;100.00;100387.78;5021139;28;20222;-81
2021/12/07 02:44:36;;;;;;;38.17;17.53;;;;;;;-2.47;100.00;100380.16;5017056;28;20310;-81
2021/12/07 02:47:07;;;;;;;38.10;17.50;;;;;;;-2.44;100.00;100381.94;5019665;28;20625;-82
2021/12/07 02:49:33;;;;;;;37.23;18.53;;;;;;;-2.45;100.00;100375.09;5020946;28;20462;-81
2021/12/07 02:52:02;;;;;;;35.40;17.50;;;;;;;-2.45;100.00;100380.19;5017242;28;20462;-81
2021/12/07 02:54:32;;;;;;;39.47;17.73;;;;;;;-2.48;100.00;100380.13;5016386;28;20223;-81
2021/12/07 02:57:01;;;;;;;42.73;19.13;;;;;;;-2.53;100.00;100386.84;5020605;28;20296;-81
2021/12/07 03:00:17;;;;;;;43.47;18.67;;;;;;;-2.54;100.00;100380.00;5017156;28;20863;-81
2021/12/07 03:02:50;;;;;;;43.93;18.03;;;;;;;-2.58;100.00;100373.94;5015184;28;20223;-81
2021/12/07 03:05:26;;;;;;;41.50;18.17;;;;;;;-2.63;100.00;100370.44;5019937;28;20456;-82
2021/12/07 03:08:16;;;;;;;40.23;18.90;;;;;;;-2.67;100.00;100366.09;5019027;28;20465;-81
2021/12/07 03:27:16;;;;;;;38.83;19.73;;;;;;;-2.97;100.00;100368.75;5016915;28;20473;-82
2021/12/07 03:29:45;;;;;;;42.13;17.77;;;;;;;-3.01;100.00;100367.81;5016243;28;20465;-81
2021/12/07 03:32:12;;;;;;;39.70;18.50;;;;;;;-3.04;100.00;100375.41;5022349;28;20477;-81
2021/12/07 03:34:39;;;;;;;40.17;17.43;;;;;;;-3.10;100.00;100365.88;5019854;28;20484;-82
2021/12/07 03:37:06;;;;;;;38.37;18.07;;;;;;;-3.12;100.00;100362.44;5017320;28;20457;-81
2021/12/07 03:39:33;;;;;;;46.33;18.10;;;;;;;-3.12;100.00;100367.53;5015644;28;20466;-80
2021/12/07 03:41:59;;;;;;;43.60;18.37;;;;;;;-3.16;100.00;100365.75;5018752;28;20563;-80
2021/12/07 03:44:26;;;;;;;38.87;17.33;;;;;;;-3.20;100.00;100371.59;5018562;28;20483;-82
2021/12/07 03:46:54;;;;;;;40.63;18.17;;;;;;;-3.25;100.00;100370.63;5018277;28;20477;-81
2021/12/07 03:49:20;;;;;;;36.17;17.57;;;;;;;-3.21;100.00;100372.41;5017647;28;20470;-81
2021/12/07 03:51:47;;;;;;;42.07;18.40;;;;;;;-3.25;100.00;100368.94;5021427;28;20491;-82
2021/12/07 03:54:13;;;;;;;43.53;19.40;;;;;;;-3.25;100.00;100368.06;5019551;28;20894;-81
2021/12/07 03:56:40;;;;;;;40.03;18.07;;;;;;;-3.30;100.00;100367.09;5019646;28;20512;-80
2021/12/07 03:59:08;;;;;;;42.23;18.47;;;;;;;-3.30;100.00;100365.38;5017649;28;20470;-80
2021/12/07 04:01:34;;;;;;;39.97;18.97;;;;;;;-3.33;100.00;100370.41;5018238;28;20505;-81
2021/12/07 04:04:03;;;;;;;44.70;19.40;;;;;;;-3.33;100.00;100367.84;5013541;28;20516;-81
2021/12/07 04:06:30;;;;;;;45.07;19.90;;;;;;;-3.34;100.00;100368.69;5022986;28;20470;-81
2021/12/07 04:08:56;;;;;;;45.13;19.57;;;;;;;-3.35;100.00;100366.09;5016446;28;20564;-81
2021/12/07 04:11:23;;;;;;;42.77;19.20;;;;;;;-3.35;100.00;100368.66;5014259;28;20460;-81
2021/12/07 04:13:49;;;;;;;44.73;19.33;;;;;;;-3.35;100.00;100373.75;5012337;28;20491;-81
2021/12/07 04:16:20;;;;;;;46.97;19.23;;;;;;;-3.39;100.00;100369.38;5017566;28;20513;-80
2021/12/07 04:18:50;;;;;;;48.07;19.53;;;;;;;-3.39;100.00;100371.91;5012222;28;20734;-80
2021/12/07 04:21:18;;;;;;;44.13;18.93;;;;;;;-3.43;100.00;100376.97;5021007;28;20574;-82
2021/12/07 04:23:44;;;;;;;51.80;20.30;;;;;;;-3.40;100.00;100377.84;5016203;28;20591;-81
2021/12/07 04:26:13;;;;;;;48.83;19.70;;;;;;;-3.36;100.00;100377.09;5015109;28;20468;-80
2021/12/07 04:28:40;;;;;;;42.67;18.77;;;;;;;-3.36;100.00;100374.56;5017616;28;20477;-81
2021/12/07 04:31:07;;;;;;;50.97;20.07;;;;;;;-3.36;100.00;100372.91;5019702;28;20471;-80
2021/12/07 04:33:35;;;;;;;43.07;18.87;;;;;;;-3.35;100.00;100374.59;5020784;28;20854;-82
2021/12/07 04:36:02;;;;;;;48.40;19.80;;;;;;;-3.36;100.00;100372.91;5017700;28;20478;-84
2021/12/07 04:38:29;;;;;;;47.10;20.03;;;;;;;-3.36;100.00;100378.00;5020041;28;20461;-83
2021/12/07 04:40:56;;;;;;;42.73;19.10;;;;;;;-3.36;100.00;100378.00;5015335;28;20499;-80
2021/12/07 04:43:22;;;;;;;46.87;20.77;;;;;;;-3.30;100.00;100377.28;5022990;28;20606;-80
2021/12/07 04:45:58;;;;;;;49.53;21.33;;;;;;;-3.28;100.00;100367.97;5016893;28;20463;-80
2021/12/07 04:59:19;;;;;;;51.67;20.70;;;;;;;-3.13;100.00;100353.09;5012445;28;21003;-84
2021/12/07 05:01:46;;;;;;;49.90;20.67;;;;;;;-3.09;100.00;100349.78;5017898;28;20464;-81
2021/12/07 05:04:17;;;;;;;43.53;19.00;;;;;;;-3.06;100.00;100347.31;5020107;28;20526;-81
2021/12/07 05:07:46;;;;;;;52.33;20.13;;;;;;;-3.05;100.00;100350.72;5017011;28;20555;-81
2021/12/07 05:10:22;;;;;;;40.20;19.50;;;;;;;-3.00;100.00;100349.13;5018932;28;21001;-82
2021/12/07 05:15:59;;;;;;;43.00;19.63;;;;;;;-2.97;100.00;100348.34;5015324;28;20483;-80
2021/12/07 05:18:40;;;;;;;46.80;20.47;;;;;;;-2.97;100.00;100350.88;5019130;28;20504;-80
2021/12/07 05:24:03;;;;;;;44.40;19.20;;;;;;;-2.94;100.00;100356.06;5016897;28;20487;-80
2021/12/07 05:37:46;;;;;;;47.90;19.87;;;;;;;-3.01;100.00;100364.41;4973378;28;20533;-82
2021/12/07 05:40:15;;;;;;;47.30;19.83;;;;;;;-3.06;100.00;100356.63;5011330;28;20519;-80
2021/12/07 05:43:36;;;;;;;45.60;20.27;;;;;;;-3.12;100.00;100357.34;5011374;28;20462;-80
2021/12/07 05:49:52;;;;;;;39.13;17.87;;;;;;;-3.27;100.00;100362.94;5037110;23;20580;-73
2021/12/07 05:52:18;;;;;;;40.87;18.47;;;;;;;-3.32;100.00;100353.44;5023783;28;20473;-74
2021/12/07 05:54:45;;;;;;;44.07;19.07;;;;;;;-3.36;100.00;100356.72;5025542;28;20454;-73
2021/12/07 05:57:43;;;;;;;41.17;18.93;;;;;;;-3.40;100.00;100355.78;5021772;28;20467;-73
2021/12/07 06:00:14;;;;;;;40.13;18.97;;;;;;;-3.40;100.00;100352.38;5022836;28;20483;-72
2021/12/07 06:02:41;;;;;;;48.47;20.87;;;;;;;-3.44;100.00;100351.44;5020978;28;20500;-73
2021/12/07 06:05:10;;;;;;;42.60;18.23;;;;;;;-3.46;100.00;100348.84;5019667;28;20470;-72
2021/12/07 06:07:36;;;;;;;47.93;19.23;;;;;;;-3.48;100.00;100349.63;5023861;28;20468;-73
2021/12/07 06:10:04;;;;;;;50.53;20.13;;;;;;;-3.50;100.00;100356.34;5022930;28;20911;-73
2021/12/07 06:12:30;;;;;;;39.07;17.73;;;;;;;-3.51;100.00;100354.63;5025723;28;20464;-71
2021/12/07 06:14:57;;;;;;;43.57;18.97;;;;;;;-3.53;100.00;100351.19;5022043;28;20447;-73
2021/12/07 06:17:24;;;;;;;46.43;19.07;;;;;;;-3.56;100.00;100354.50;5021776;28;20546;-73
2021/12/07 06:19:52;;;;;;;45.73;19.13;;;;;;;-3.60;100.00;100356.94;5022123;28;20492;-72
2021/12/07 06:22:20;;;;;;;43.50;18.80;;;;;;;-3.58;100.00;100356.16;5022176;28;20828;-72
2021/12/07 06:24:46;;;;;;;44.00;18.93;;;;;;;-3.63;100.00;100366.22;5023404;28;20504;-73
2021/12/07 06:27:13;;;;;;;52.90;20.47;;;;;;;-3.66;100.00;100373.78;5023397;28;20464;-72
2021/12/07 06:29:39;;;;;;;51.80;20.43;;;;;;;-3.69;100.00;100375.41;5022723;28;20566;-72
2021/12/07 06:32:06;;;;;;;48.77;20.57;;;;;;;-3.71;100.00;100372.81;5023143;28;20457;-73
2021/12/07 06:34:33;;;;;;;50.60;20.13;;;;;;;-3.70;100.00;100373.66;5022433;28;20472;-73
2021/12/07 06:37:00;;;;;;;49.93;20.13;;;;;;;-3.72;100.00;100371.06;5025222;28;20455;-71
2021/12/07 06:39:28;;;;;;;53.57;20.70;;;;;;;-3.73;100.00;100371.91;5020999;28;20476;-72
2021/12/07 06:41:54;;;;;;;41.17;18.67;;;;;;;-3.73;100.00;100376.13;5044304;28;20475;-73
2021/12/07 06:44:21;;;;;;;52.17;20.47;;;;;;;-3.73;100.00;100378.66;5022341;28;20497;-72
2021/12/07 06:46:48;;;;;;;52.33;20.00;;;;;;;-3.70;100.00;100384.72;5023497;28;20456;-72
2021/12/07 06:49:15;;;;;;;51.50;21.53;;;;;;;-3.71;100.00;100384.66;5022639;28;21013;-73
2021/12/07 06:51:41;;;;;;;52.10;20.50;;;;;;;-3.70;100.00;100383.84;5022820;28;20471;-73
2021/12/07 06:54:08;;;;;;;55.77;21.07;;;;;;;-3.72;100.00;100386.34;5025134;28;21151;-73
2021/12/07 06:56:35;;;;;;;46.90;20.37;;;;;;;-3.72;100.00;100378.72;5023065;28;20463;-73
2021/12/07 06:59:02;;;;;;;58.27;20.97;;;;;;;-3.71;100.00;100385.53;5022551;28;20503;-73
2021/12/07 07:01:29;;;;;;;55.13;20.97;;;;;;;-3.71;100.00;100394.84;5022541;28;20480;-71
2021/12/07 07:03:55;;;;;;;54.47;20.93;;;;;;;-3.72;100.00;100399.09;5024930;28;20468;-72
2021/12/07 07:06:22;;;;;;;53.30;22.00;;;;;;;-3.66;100.00;100403.50;5022129;28;20443;-73
2021/12/07 07:08:50;;;;;;;50.70;22.67;;;;;;;-3.64;100.00;100405.28;5024465;28;20849;-73
2021/12/07 07:11:16;;;;;;;56.97;22.77;;;;;;;-3.58;100.00;100406.28;5024643;28;20462;-72
2021/12/07 07:13:45;;;;;;;53.63;22.60;;;;;;;-3.53;100.00;100415.78;5026070;28;20989;-73
2021/12/07 07:16:11;;;;;;;54.83;21.20;;;;;;;-3.52;100.00;100411.53;5023950;28;20469;-73
2021/12/07 07:18:38;;;;;;;53.60;21.30;;;;;;;-3.49;100.00;100412.47;5024352;28;20467;-72
2021/12/07 07:21:05;;;;;;;61.00;23.87;;;;;;;-3.45;100.00;100415.97;5025684;28;20509;-70
2021/12/07 07:23:31;;;;;;;67.73;22.53;;;;;;;-3.42;100.00;100414.38;5025064;28;20472;-73
2021/12/07 07:25:58;;;;;;;50.63;21.87;;;;;;;-3.38;100.00;100414.44;5022720;28;20961;-72
2021/12/07 07:28:24;;;;;;;59.20;23.57;;;;;;;-3.34;100.00;100418.81;5027413;28;20577;-70
2021/12/07 07:30:52;;;;;;;57.47;23.23;;;;;;;-3.30;100.00;100418.94;5025487;28;20935;-72
2021/12/07 07:33:19;;;;;;;70.17;24.10;;;;;;;-3.26;100.00;100430.94;5027333;28;20447;-73
2021/12/07 07:39:44;;;;;;;60.83;23.43;;;;;;;-3.11;100.00;100437.28;5025713;28;20485;-73
2021/12/07 07:42:11;;;;;;;69.77;25.17;;;;;;;-3.08;100.00;100433.13;5027729;28;20452;-71
2021/12/07 07:44:49;;;;;;;66.23;23.60;;;;;;;-3.04;100.00;100431.53;5025556;28;20504;-73
2021/12/07 07:47:18;;;;;;;72.67;24.70;;;;;;;-2.99;100.00;100429.97;5026729;28;20464;-73
2021/12/07 07:49:45;;;;;;;64.20;23.83;;;;;;;-2.97;100.00;100420.66;5024827;28;20484;-74
2021/12/07 07:52:12;;;;;;;73.87;26.33;;;;;;;-2.94;100.00;100427.50;5028098;28;20467;-74
2021/12/07 07:54:38;;;;;;;67.83;23.83;;;;;;;-2.91;100.00;100432.69;5026796;28;20462;-73
2021/12/07 07:57:05;;;;;;;72.07;25.23;;;;;;;-2.88;100.00;100431.09;5026007;28;20459;-73
2021/12/07 07:59:36;;;;;;;67.37;24.00;;;;;;;-2.83;100.00;100437.97;5024585;28;20480;-73
2021/12/07 08:02:02;;;;;;;72.23;25.80;;;;;;;-2.82;100.00;100437.16;5024025;28;20534;-72
2021/12/07 08:04:30;;;;;;;65.63;25.83;;;;;;;-2.82;100.00;100434.63;5021853;28;20477;-73
2021/12/07 08:06:56;;;;;;;65.77;24.50;;;;;;;-2.79;100.00;100435.56;5026369;28;20504;-73
2021/12/07 08:09:23;;;;;;;68.47;25.03;;;;;;;-2.78;100.00;100436.41;5024139;28;20493;-73
2021/12/07 08:11:49;;;;;;;82.63;26.33;;;;;;;-2.76;100.00;100434.75;5026859;28;20466;-73
2021/12/07 08:14:17;;;;;;;82.37;27.47;;;;;;;-2.73;100.00;100434.84;5024142;28;20455;-71
2021/12/07 08:16:44;;;;;;;69.13;25.57;;;;;;;-2.72;100.00;100439.13;5024562;28;20909;-73
2021/12/07 08:19:30;;;;;;;73.53;23.93;;;;;;;-2.75;100.00;100432.25;5026519;28;20512;-74
2021/12/07 08:21:57;;;;;;;79.53;26.00;;;;;;;-2.74;100.00;100440.78;5026719;28;21177;-73
2021/12/07 08:24:23;;;;;;;66.70;24.63;;;;;;;-2.71;100.00;100444.28;5026704;28;20498;-73
2021/12/07 08:30:37;;;;;;;64.23;23.87;;;;;;;-2.62;100.00;100446.19;5023506;28;20337;-72
2021/12/07 08:33:13;;;;;;;72.87;24.43;;;;;;;-2.59;100.00;100443.69;5025955;28;20492;-71
2021/12/07 08:35:40;;;;;;;66.50;25.27;;;;;;;-2.56;100.00;100453.13;5026025;28;20459;-73
2021/12/07 08:42:22;;;;;;;67.97;24.03;;;;;;;-2.45;100.00;100455.94;5025052;28;20454;-72
2021/12/07 08:48:36;;;;;;;68.27;23.97;;;;;;;-2.34;100.00;100450.28;5024623;28;20490;-72
2021/12/07 08:51:05;;;;;;;67.03;24.07;;;;;;;-2.33;100.00;100456.22;5020869;28;20454;-71
2021/12/07 08:53:34;;;;;;;77.83;25.70;;;;;;;-2.32;100.00;100460.53;5026448;28;20460;-73
2021/12/07 09:01:32;;;;;;;71.27;25.33;;;;;;;-2.22;100.00;100467.56;5024878;28;20204;-73
2021/12/07 09:04:00;;;;;;;73.50;26.80;;;;;;;-2.17;100.00;100467.66;5040051;28;20229;-74
2021/12/07 09:06:29;;;;;;;80.03;26.53;;;;;;;-2.14;100.00;100471.16;5026290;28;20219;-73
2021/12/07 09:08:56;;;;;;;74.80;26.47;;;;;;;-2.08;100.00;100477.25;5023574;28;20492;-72
2021/12/07 09:11:23;;;;;;;73.77;26.87;;;;;;;-2.00;100.00;100473.19;5025851;28;20223;-73
2021/12/07 09:13:50;;;;;;;77.23;27.03;;;;;;;-1.97;100.00;100475.78;5025444;28;20203;-72
2021/12/07 09:16:19;;;;;;;65.20;24.30;;;;;;;-1.95;100.00;100466.47;5026063;28;20199;-73
2021/12/07 09:22:13;;;;;;;74.13;25.27;;;;;;;-1.93;100.00;100469.94;5023109;28;20274;-73
2021/12/07 09:24:39;;;;;;;76.23;26.10;;;;;;;-1.92;100.00;100461.41;5024959;28;20771;-72
2021/12/07 09:27:06;;;;;;;76.70;27.23;;;;;;;-1.94;100.00;100466.47;5023367;28;20274;-73
2021/12/07 09:29:33;;;;;;;69.00;23.60;;;;;;;-1.93;100.00;100464.81;5023752;28;20228;-73
2021/12/07 09:32:00;;;;;;;66.77;25.20;;;;;;;-1.93;100.00;100475.88;5020414;28;20254;-73
2021/12/07 09:34:27;;;;;;;70.93;25.23;;;;;;;-1.93;100.00;100472.47;5023805;28;20204;-72
2021/12/07 09:36:53;;;;;;;75.43;25.83;;;;;;;-1.91;100.00;100470.81;5023139;28;20215;-72
2021/12/07 09:39:21;;;;;;;74.90;26.10;;;;;;;-1.94;100.00;100468.19;5022753;28;20591;-73
2021/12/07 09:41:48;;;;;;;71.63;26.63;;;;;;;-1.91;100.00;100469.13;5022087;28;20702;-73
2021/12/07 09:44:14;;;;;;;65.70;24.03;;;;;;;-1.87;100.00;100472.59;5024743;28;20231;-72
2021/12/07 09:46:41;;;;;;;66.97;23.57;;;;;;;-1.85;100.00;100465.81;5021852;28;20204;-72
2021/12/07 09:49:09;;;;;;;63.80;23.90;;;;;;;-1.79;100.00;100467.69;5019065;28;20457;-74
2021/12/07 09:51:36;;;;;;;73.00;25.77;;;;;;;-1.79;100.00;100462.56;5023371;28;21239;-73
2021/12/07 09:54:38;;;;;;;81.83;25.83;;;;;;;-1.73;100.00;100465.22;5025640;28;20207;-73
2021/12/07 09:57:05;;;;;;;74.60;23.97;;;;;;;-1.70;100.00;100465.31;5023813;28;20211;-73
2021/12/07 09:59:32;;;;;;;71.77;25.67;;;;;;;-1.68;100.00;100461.09;5023099;28;20229;-73
2021/12/07 10:01:58;;;;;;;70.10;25.30;;;;;;;-1.65;100.00;100465.38;5022936;28;20200;-72
2021/12/07 10:04:49;;;;;;;68.33;24.70;;;;;;;-1.64;100.00;100467.97;5021923;28;20216;-73
2021/12/07 10:07:16;;;;;;;71.13;25.33;;;;;;;-1.65;100.00;100473.06;5021720;28;20223;-73
2021/12/07 10:10:03;;;;;;;77.93;26.27;;;;;;;-1.60;100.00;100462.13;5023176;28;20227;-72
2021/12/07 10:12:29;;;;;;;66.77;25.00;;;;;;;-1.56;100.00;100469.00;5023905;28;20203;-70
2021/12/07 10:14:56;;;;;;;74.60;25.30;;;;;;;-1.50;100.00;100464.84;5023595;28;20700;-73
2021/12/07 10:17:30;;;;;;;81.40;25.87;;;;;;;-1.44;100.00;100465.84;5023773;28;20600;-73
2021/12/07 10:19:56;;;;;;;74.67;25.70;;;;;;;-1.40;100.00;100464.22;5022336;28;20220;-72
2021/12/07 10:22:23;;;;;;;73.73;26.93;;;;;;;-1.30;100.00;100471.25;5029088;28;20208;-73
2021/12/07 10:24:54;;;;;;;74.13;24.93;;;;;;;-1.23;100.00;100469.63;5022708;28;20562;-73
2021/12/07 10:27:34;;;;;;;73.53;26.17;;;;;;;-1.17;100.00;100469.78;5024546;28;20216;-72
2021/12/07 10:30:02;;;;;;;85.47;28.87;;;;;;;-1.16;100.00;100466.41;5023315;28;20220;-73
2021/12/07 10:32:29;;;;;;;67.27;26.50;;;;;;;-1.15;100.00;100465.53;5022727;28;20736;-73
2021/12/07 10:34:55;;;;;;;72.60;27.73;;;;;;;-1.10;100.00;100466.50;5020672;28;20204;-72
2021/12/07 10:37:21;;;;;;;78.73;26.57;;;;;;;-1.03;100.00;100470.91;5025180;28;20204;-72
2021/12/07 10:39:51;;;;;;;80.50;27.10;;;;;;;-1.02;100.00;100459.84;5023359;28;21052;-73
2021/12/07 10:42:20;;;;;;;71.03;26.03;;;;;;;-1.04;100.00;100461.50;5021113;28;20200;-73
2021/12/07 10:44:49;;;;;;;71.00;26.33;;;;;;;-1.09;100.00;100458.00;5023740;28;20200;-73
2021/12/07 10:47:17;;;;;;;74.57;25.63;;;;;;;-1.08;100.00;100453.72;5023339;28;20196;-72
2021/12/07 10:49:46;;;;;;;69.70;25.17;;;;;;;-1.13;100.00;100450.22;5021887;28;20254;-73
2021/12/07 10:52:24;;;;;;;69.37;25.87;;;;;;;-1.16;100.00;100444.22;5022781;28;20243;-73
2021/12/07 10:54:57;;;;;;;63.77;24.13;;;;;;;-1.14;100.00;100446.81;5022802;28;20187;-73
2021/12/07 10:57:26;;;;;;;65.77;23.60;;;;;;;-1.13;100.00;100442.56;5020580;28;20562;-72
2021/12/07 11:00:09;;;;;;;60.47;22.70;;;;;;;-1.12;100.00;100445.13;5021466;28;20220;-73
2021/12/07 11:02:38;;;;;;;65.30;24.20;;;;;;;-1.07;100.00;100437.53;5020635;28;20204;-73
2021/12/07 11:05:07;;;;;;;65.97;25.23;;;;;;;-1.08;100.00;100441.78;5026543;28;20223;-73
2021/12/07 11:07:35;;;;;;;66.63;23.00;;;;;;;-1.04;100.00;100432.47;5025439;28;20204;-71
2021/12/07 11:10:08;;;;;;;56.43;23.63;;;;;;;-1.03;100.00;100432.50;5025949;28;20629;-73
2021/12/07 11:12:43;;;;;;;62.43;23.07;;;;;;;-1.03;100.00;100422.28;5025262;28;20621;-72
2021/12/07 11:15:17;;;;;;;63.87;24.20;;;;;;;-1.00;100.00;100422.34;5027256;28;20208;-71
2021/12/07 11:17:44;;;;;;;61.73;24.03;;;;;;;-1.04;100.00;100425.69;5027209;28;20223;-73
2021/12/07 11:20:13;;;;;;;65.13;22.43;;;;;;;-1.04;100.00;100430.78;5025803;28;20236;-73
2021/12/07 11:22:42;;;;;;;63.53;23.60;;;;;;;-1.02;100.00;100431.69;5026954;28;20210;-73
2021/12/07 11:25:10;;;;;;;60.53;23.43;;;;;;;-0.99;100.00;100433.41;5026223;28;20220;-73
2021/12/07 11:30:28;;;;;;;66.37;24.47;;;;;;;-0.96;100.00;100430.91;5023795;28;20728;-73
2021/12/07 11:32:57;;;;;;;65.27;22.47;;;;;;;-0.96;100.00;100433.47;5022540;28;20211;-73
2021/12/07 11:35:27;;;;;;;65.23;23.10;;;;;;;-0.91;100.00;100433.56;5026756;28;20200;-73
2021/12/07 11:37:54;;;;;;;64.90;23.90;;;;;;;-0.87;100.00;100433.63;5026126;28;20200;-73
2021/12/07 11:40:25;;;;;;;64.10;24.47;;;;;;;-0.85;100.00;100434.53;5024663;28;20224;-72
2021/12/07 11:42:52;;;;;;;66.27;23.17;;;;;;;-0.82;100.00;100441.41;5027304;28;20287;-73
2021/12/07 11:45:21;;;;;;;65.03;24.13;;;;;;;-0.78;100.00;100444.03;5022513;28;20226;-73
2021/12/07 11:47:51;;;;;;;66.07;23.17;;;;;;;-0.78;100.00;100440.63;5024148;28;20261;-73
2021/12/07 11:50:38;;;;;;;60.03;23.60;;;;;;;-0.78;100.00;100445.72;5026030;28;20240;-72
2021/12/07 11:53:07;;;;;;;55.47;22.70;;;;;;;-0.78;100.00;100445.72;5024003;28;20207;-73
2021/12/07 11:55:36;;;;;;;60.43;23.67;;;;;;;-0.74;100.00;100446.66;5006946;28;20203;-70
2021/12/07 11:58:06;;;;;;;69.17;24.20;;;;;;;-0.75;100.00;100450.06;5004745;28;20303;-73
2021/12/07 12:00:36;;;;;;;56.07;23.03;;;;;;;-0.75;100.00;100447.50;5006650;28;20212;-73
2021/12/07 12:03:05;;;;;;;65.07;25.00;;;;;;;-0.73;100.00;100441.56;5006685;28;20212;-73
2021/12/07 12:05:32;;;;;;;57.13;22.93;;;;;;;-0.68;100.00;100431.41;5008848;28;20208;-70
2021/12/07 12:07:59;;;;;;;56.00;22.53;;;;;;;-0.64;100.00;100441.69;5004563;28;20205;-74
2021/12/07 12:10:26;;;;;;;64.30;24.70;;;;;;;-0.64;100.00;100434.03;5020988;28;20205;-73
2021/12/07 12:13:12;;;;;;;60.50;22.70;;;;;;;-0.61;100.00;100430.66;5002623;28;20207;-73
2021/12/07 12:15:54;;;;;;;56.50;23.47;;;;;;;-0.57;100.00;100428.16;5004710;28;20299;-71
2021/12/07 12:18:42;;;;;;;54.57;21.60;;;;;;;-0.51;100.00;100426.53;5004056;28;20232;-70
2021/12/07 12:21:16;;;;;;;60.03;22.40;;;;;;;-0.47;100.00;100418.09;5000019;28;20204;-71
2021/12/07 12:23:53;;;;;;;59.13;23.40;;;;;;;-0.42;100.00;100426.69;5003105;28;20379;-74
2021/12/07 12:26:23;;;;;;;61.40;24.00;;;;;;;-0.42;100.00;100424.13;5003120;28;20228;-73
2021/12/07 12:28:50;;;;;;;52.90;22.00;;;;;;;-0.40;100.00;100420.75;5005265;28;20235;-72
2021/12/07 12:31:18;;;;;;;52.83;21.83;;;;;;;-0.43;100.00;100418.13;5003237;28;20217;-72
2021/12/07 12:33:53;;;;;;;50.83;22.10;;;;;;;-0.41;100.00;100425.84;5003288;28;20208;-73
2021/12/07 12:36:22;;;;;;;52.17;21.20;;;;;;;-0.44;100.00;100421.56;5004114;28;20205;-73
2021/12/07 12:38:57;;;;;;;48.27;19.87;;;;;;;-0.45;100.00;100431.78;5005781;28;20228;-73
2021/12/07 12:41:24;;;;;;;49.63;21.40;;;;;;;-0.44;100.00;100429.25;5003396;28;20214;-73
2021/12/07 12:43:54;;;;;;;43.47;19.00;;;;;;;-0.47;100.00;100428.31;5005209;28;20211;-73
2021/12/07 12:46:23;;;;;;;46.23;19.73;;;;;;;-0.57;100.00;100428.16;5003891;28;20689;-72
2021/12/07 12:48:53;;;;;;;45.77;20.07;;;;;;;-0.65;100.00;100422.06;5002718;28;20244;-72
2021/12/07 12:51:22;;;;;;;43.50;18.63;;;;;;;-0.67;100.00;100423.75;5010658;28;20216;-73
2021/12/07 12:53:51;;;;;;;36.37;17.40;;;;;;;-0.69;100.00;100419.44;5004814;28;20662;-71
2021/12/07 12:56:20;;;;;;;42.77;18.50;;;;;;;-0.73;100.00;100413.38;5005400;28;20204;-71
2021/12/07 12:58:48;;;;;;;37.70;17.40;;;;;;;-0.76;100.00;100410.78;5000905;28;20321;-73
2021/12/07 13:01:22;;;;;;;37.37;16.90;;;;;;;-0.75;100.00;100417.63;5002841;28;20710;-72